sensor_id;sensor_type;location;lat;lon;timestamp;pressure;altitude;pressure_sealevel;temperature;humidity
818;BME280;391;51.052;6.954;2023-06-05T00:00:48;101348.25;;;21.12;38.44
818;BME280;391;51.052;6.954;2023-06-05T00:02:52;101345.63;;;21.01;38.35
818;BME280;391;51.052;6.954;2023-06-05T00:04:56;101356.22;;;20.98;38.72
818;BME280;391;51.052;6.954;2023-06-05T00:06:59;101250.44;;;20.23;38.72
818;BME280;391;51.052;6.954;2023-06-05T00:09:04;101350.09;;;20.83;38.85
818;BME280;391;51.052;6.954;2023-06-05T00:11:09;101357.16;;;20.88;39.01
818;BME280;391;51.052;6.954;2023-06-05T00:13:13;101355.41;;;20.80;39.23
818;BME280;391;51.052;6.954;2023-06-05T00:15:17;101351.03;;;20.67;39.27
818;BME280;391;51.052;6.954;2023-06-05T00:17:20;101364.25;;;20.74;39.37
818;BME280;391;51.052;6.954;2023-06-05T00:19:24;101359.84;;;20.76;39.31
818;BME280;391;51.052;6.954;2023-06-05T00:21:28;101356.31;;;20.70;39.62
818;BME280;391;51.052;6.954;2023-06-05T00:23:32;101358.09;;;20.66;39.81
818;BME280;391;51.052;6.954;2023-06-05T00:25:35;101351.94;;;20.58;39.72
818;BME280;391;51.052;6.954;2023-06-05T00:27:40;101362.53;;;20.52;40.13
818;BME280;391;51.052;6.954;2023-06-05T00:29:44;101360.78;;;20.46;40.17
818;BME280;391;51.052;6.954;2023-06-05T00:31:48;101364.31;;;20.51;40.18
818;BME280;391;51.052;6.954;2023-06-05T00:33:51;101361.66;;;20.54;39.69
818;BME280;391;51.052;6.954;2023-06-05T00:35:55;101370.47;;;20.55;39.88
818;BME280;391;51.052;6.954;2023-06-05T00:38:00;101362.53;;;20.53;39.78
818;BME280;391;51.052;6.954;2023-06-05T00:40:05;101364.31;;;20.53;39.58
818;BME280;391;51.052;6.954;2023-06-05T00:42:09;101365.19;;;20.52;39.91
818;BME280;391;51.052;6.954;2023-06-05T00:44:17;101305.16;;;20.25;39.82
818;BME280;391;51.052;6.954;2023-06-05T00:46:21;101366.97;;;20.54;39.82
818;BME280;391;51.052;6.954;2023-06-05T00:48:25;101366.09;;;20.54;39.39
818;BME280;391;51.052;6.954;2023-06-05T00:50:29;101305.16;;;20.18;39.48
818;BME280;391;51.052;6.954;2023-06-05T00:52:34;101355.47;;;20.46;39.50
818;BME280;391;51.052;6.954;2023-06-05T00:54:38;101351.06;;;20.44;39.49
818;BME280;391;51.052;6.954;2023-06-05T00:56:44;101351.06;;;20.39;39.50
818;BME280;391;51.052;6.954;2023-06-05T00:58:49;101350.19;;;20.36;39.25
818;BME280;391;51.052;6.954;2023-06-05T01:00:54;101344.03;;;20.37;39.70
818;BME280;391;51.052;6.954;2023-06-05T01:02:58;101352.84;;;20.40;39.46
818;BME280;391;51.052;6.954;2023-06-05T01:05:02;101355.50;;;20.42;39.66
818;BME280;391;51.052;6.954;2023-06-05T01:07:06;101344.03;;;20.35;39.53
818;BME280;391;51.052;6.954;2023-06-05T01:09:11;101359.03;;;20.38;39.53
818;BME280;391;51.052;6.954;2023-06-05T01:11:20;101361.66;;;20.36;39.87
818;BME280;391;51.052;6.954;2023-06-05T01:13:29;101355.50;;;20.34;39.59
818;BME280;391;51.052;6.954;2023-06-05T01:15:35;101354.66;;;20.29;39.83
818;BME280;391;51.052;6.954;2023-06-05T01:17:43;101353.72;;;20.24;39.98
818;BME280;391;51.052;6.954;2023-06-05T01:19:50;101304.31;;;19.93;40.07
818;BME280;391;51.052;6.954;2023-06-05T01:21:54;101311.38;;;19.91;40.68
818;BME280;391;51.052;6.954;2023-06-05T01:24:00;101351.06;;;20.18;40.28
818;BME280;391;51.052;6.954;2023-06-05T01:26:05;101349.31;;;20.13;40.31
818;BME280;391;51.052;6.954;2023-06-05T01:28:15;101352.84;;;20.13;40.49
818;BME280;391;51.052;6.954;2023-06-05T01:30:24;101351.06;;;20.15;40.28
818;BME280;391;51.052;6.954;2023-06-05T01:32:36;101350.22;;;20.13;40.47
818;BME280;391;51.052;6.954;2023-06-05T01:34:42;101348.41;;;20.04;40.30
818;BME280;391;51.052;6.954;2023-06-05T01:36:47;101351.09;;;20.00;40.38
818;BME280;391;51.052;6.954;2023-06-05T01:38:53;101342.25;;;19.90;40.88
818;BME280;391;51.052;6.954;2023-06-05T01:40:58;101343.13;;;19.85;40.82
818;BME280;391;51.052;6.954;2023-06-05T01:43:03;101344.03;;;19.87;40.88
818;BME280;391;51.052;6.954;2023-06-05T01:45:10;101292.81;;;19.56;40.79
818;BME280;391;51.052;6.954;2023-06-05T01:47:14;101345.78;;;19.83;40.79
818;BME280;391;51.052;6.954;2023-06-05T01:49:19;101340.47;;;19.79;41.06
818;BME280;391;51.052;6.954;2023-06-05T01:51:23;101343.09;;;19.73;41.13
818;BME280;391;51.052;6.954;2023-06-05T01:53:28;101338.72;;;19.69;41.41
818;BME280;391;51.052;6.954;2023-06-05T01:55:32;101336.94;;;19.65;41.61
818;BME280;391;51.052;6.954;2023-06-05T01:57:37;101335.19;;;19.59;41.71
818;BME280;391;51.052;6.954;2023-06-05T01:59:41;101342.19;;;19.54;41.95
818;BME280;391;51.052;6.954;2023-06-05T02:01:49;101335.16;;;19.54;41.98
818;BME280;391;51.052;6.954;2023-06-05T02:03:53;101334.28;;;19.52;41.97
818;BME280;391;51.052;6.954;2023-06-05T02:06:00;101335.13;;;19.45;42.49
818;BME280;391;51.052;6.954;2023-06-05T02:08:03;101333.38;;;19.43;42.53
818;BME280;391;51.052;6.954;2023-06-05T02:10:09;101338.59;;;19.32;43.00
818;BME280;391;51.052;6.954;2023-06-05T02:12:12;101331.53;;;19.30;43.17
818;BME280;391;51.052;6.954;2023-06-05T02:14:17;101332.41;;;19.29;43.34
818;BME280;391;51.052;6.954;2023-06-05T02:16:22;101316.53;;;19.27;43.41
818;BME280;391;51.052;6.954;2023-06-05T02:18:28;101330.66;;;19.32;43.67
818;BME280;391;51.052;6.954;2023-06-05T02:20:32;101326.25;;;19.31;44.18
818;BME280;391;51.052;6.954;2023-06-05T02:22:37;101327.13;;;19.29;44.52
818;BME280;391;51.052;6.954;2023-06-05T02:24:40;101328.00;;;19.26;44.77
818;BME280;391;51.052;6.954;2023-06-05T02:26:44;101326.22;;;19.19;45.21
818;BME280;391;51.052;6.954;2023-06-05T02:28:48;101328.81;;;19.12;45.53
818;BME280;391;51.052;6.954;2023-06-05T02:30:53;101331.47;;;19.12;45.76
818;BME280;391;51.052;6.954;2023-06-05T02:32:57;101327.06;;;19.11;45.94
818;BME280;391;51.052;6.954;2023-06-05T02:35:04;101326.19;;;19.16;45.89
818;BME280;391;51.052;6.954;2023-06-05T02:37:07;101325.34;;;19.20;45.88
818;BME280;391;51.052;6.954;2023-06-05T02:39:14;101320.03;;;19.22;45.84
818;BME280;391;51.052;6.954;2023-06-05T02:41:18;101291.72;;;18.86;46.06
818;BME280;391;51.052;6.954;2023-06-05T02:43:21;101320.00;;;19.07;46.52
818;BME280;391;51.052;6.954;2023-06-05T02:45:25;101318.22;;;19.06;46.70
818;BME280;391;51.052;6.954;2023-06-05T02:47:30;101306.78;;;19.00;46.79
818;BME280;391;51.052;6.954;2023-06-05T02:49:35;101289.09;;;18.84;46.82
818;BME280;391;51.052;6.954;2023-06-05T02:51:39;101314.66;;;18.90;47.20
818;BME280;391;51.052;6.954;2023-06-05T02:53:44;101308.47;;;18.89;47.37
818;BME280;391;51.052;6.954;2023-06-05T02:55:50;101305.81;;;18.89;47.69
818;BME280;391;51.052;6.954;2023-06-05T02:57:55;101312.00;;;18.87;47.62
818;BME280;391;51.052;6.954;2023-06-05T03:00:10;101312.00;;;18.87;48.08
818;BME280;391;51.052;6.954;2023-06-05T03:02:20;101311.13;;;18.85;48.28
818;BME280;391;51.052;6.954;2023-06-05T03:04:26;101305.81;;;18.82;48.42
818;BME280;391;51.052;6.954;2023-06-05T03:06:32;101312.84;;;18.86;48.33
818;BME280;391;51.052;6.954;2023-06-05T03:08:40;101305.78;;;18.80;48.48
818;BME280;391;51.052;6.954;2023-06-05T03:10:48;101307.53;;;18.77;48.53
818;BME280;391;51.052;6.954;2023-06-05T03:12:55;101317.19;;;18.70;48.55
818;BME280;391;51.052;6.954;2023-06-05T03:15:02;101310.16;;;18.69;48.66
818;BME280;391;51.052;6.954;2023-06-05T03:17:06;101302.16;;;18.59;48.76
818;BME280;391;51.052;6.954;2023-06-05T03:19:11;101310.06;;;18.54;48.90
818;BME280;391;51.052;6.954;2023-06-05T03:21:18;101310.06;;;18.54;49.02
818;BME280;391;51.052;6.954;2023-06-05T03:23:22;101305.59;;;18.48;49.09
818;BME280;391;51.052;6.954;2023-06-05T03:25:27;101299.41;;;18.40;49.43
818;BME280;391;51.052;6.954;2023-06-05T03:27:32;101297.66;;;18.41;49.65
818;BME280;391;51.052;6.954;2023-06-05T03:29:36;101300.28;;;18.42;49.61
818;BME280;391;51.052;6.954;2023-06-05T03:31:40;101298.53;;;18.43;49.56
818;BME280;391;51.052;6.954;2023-06-05T03:33:45;101309.09;;;18.40;49.78
818;BME280;391;51.052;6.954;2023-06-05T03:35:49;101300.22;;;18.35;49.95
818;BME280;391;51.052;6.954;2023-06-05T03:37:56;101308.16;;;18.33;50.03
818;BME280;391;51.052;6.954;2023-06-05T03:39:59;101311.69;;;18.34;49.99
818;BME280;391;51.052;6.954;2023-06-05T03:42:04;101309.91;;;18.33;50.03
818;BME280;391;51.052;6.954;2023-06-05T03:44:09;101309.00;;;18.28;50.10
818;BME280;391;51.052;6.954;2023-06-05T03:46:13;101315.19;;;18.33;50.25
818;BME280;391;51.052;6.954;2023-06-05T03:48:21;101309.06;;;18.37;50.31
818;BME280;391;51.052;6.954;2023-06-05T03:50:25;101312.56;;;18.36;50.38
818;BME280;391;51.052;6.954;2023-06-05T03:52:30;101309.03;;;18.32;50.45
818;BME280;391;51.052;6.954;2023-06-05T03:54:37;101312.50;;;18.27;50.71
818;BME280;391;51.052;6.954;2023-06-05T03:56:40;101315.09;;;18.22;50.94
818;BME280;391;51.052;6.954;2023-06-05T03:58:52;101318.63;;;18.23;50.98
818;BME280;391;51.052;6.954;2023-06-05T04:00:55;101317.72;;;18.19;51.41
818;BME280;391;51.052;6.954;2023-06-05T04:03:00;101330.94;;;18.21;51.51
818;BME280;391;51.052;6.954;2023-06-05T04:05:05;101294.81;;;18.09;51.51
818;BME280;391;51.052;6.954;2023-06-05T04:07:09;101318.63;;;18.20;51.78
818;BME280;391;51.052;6.954;2023-06-05T04:09:14;101319.53;;;18.22;51.83
818;BME280;391;51.052;6.954;2023-06-05T04:11:20;101314.22;;;18.20;51.93
818;BME280;391;51.052;6.954;2023-06-05T04:13:24;101313.31;;;18.17;51.98
818;BME280;391;51.052;6.954;2023-06-05T04:15:33;101313.28;;;18.14;52.27
818;BME280;391;51.052;6.954;2023-06-05T04:17:44;101311.53;;;18.16;52.40
818;BME280;391;51.052;6.954;2023-06-05T04:19:48;101315.13;;;18.24;52.33
818;BME280;391;51.052;6.954;2023-06-05T04:21:52;101316.03;;;18.24;52.58
818;BME280;391;51.052;6.954;2023-06-05T04:23:55;101318.66;;;18.29;52.64
818;BME280;391;51.052;6.954;2023-06-05T04:26:00;101308.09;;;18.24;52.51
818;BME280;391;51.052;6.954;2023-06-05T04:28:06;101310.69;;;18.17;52.59
818;BME280;391;51.052;6.954;2023-06-05T04:30:12;101306.28;;;18.14;52.85
818;BME280;391;51.052;6.954;2023-06-05T04:32:17;101316.84;;;18.17;53.10
818;BME280;391;51.052;6.954;2023-06-05T04:34:21;101311.53;;;18.14;53.32
818;BME280;391;51.052;6.954;2023-06-05T04:36:27;101319.47;;;18.16;53.33
818;BME280;391;51.052;6.954;2023-06-05T04:38:31;101318.63;;;18.20;53.52
818;BME280;391;51.052;6.954;2023-06-05T04:40:35;101320.44;;;18.27;53.53
818;BME280;391;51.052;6.954;2023-06-05T04:42:38;101321.31;;;18.29;53.59
818;BME280;391;51.052;6.954;2023-06-05T04:44:45;101319.53;;;18.26;53.85
818;BME280;391;51.052;6.954;2023-06-05T04:46:49;101323.94;;;18.29;53.99
818;BME280;391;51.052;6.954;2023-06-05T04:48:54;101330.09;;;18.25;54.27
818;BME280;391;51.052;6.954;2023-06-05T04:51:00;101326.59;;;18.29;54.43
818;BME280;391;51.052;6.954;2023-06-05T04:53:03;101327.47;;;18.29;54.32
818;BME280;391;51.052;6.954;2023-06-05T04:55:08;101320.44;;;18.28;54.63
818;BME280;391;51.052;6.954;2023-06-05T04:57:12;101322.19;;;18.26;54.75
818;BME280;391;51.052;6.954;2023-06-05T04:59:16;101323.03;;;18.22;54.97
818;BME280;391;51.052;6.954;2023-06-05T05:01:23;101320.44;;;18.27;55.25
818;BME280;391;51.052;6.954;2023-06-05T05:03:27;101315.16;;;18.27;55.17
818;BME280;391;51.052;6.954;2023-06-05T05:05:32;101318.63;;;18.23;55.26
818;BME280;391;51.052;6.954;2023-06-05T05:07:40;101321.22;;;18.12;55.61
818;BME280;391;51.052;6.954;2023-06-05T05:09:44;101322.94;;;18.06;55.76
818;BME280;391;51.052;6.954;2023-06-05T05:11:49;101321.16;;;18.05;55.89
818;BME280;391;51.052;6.954;2023-06-05T05:13:52;101322.91;;;18.04;55.95
818;BME280;391;51.052;6.954;2023-06-05T05:15:56;101321.16;;;18.05;56.18
818;BME280;391;51.052;6.954;2023-06-05T05:18:01;101318.50;;;18.05;55.91
818;BME280;391;51.052;6.954;2023-06-05T05:20:06;101324.59;;;17.94;56.10
818;BME280;391;51.052;6.954;2023-06-05T05:22:13;101325.53;;;18.00;56.25
818;BME280;391;51.052;6.954;2023-06-05T05:24:16;101290.16;;;17.79;56.21
818;BME280;391;51.052;6.954;2023-06-05T05:26:20;101336.81;;;17.85;56.21
818;BME280;391;51.052;6.954;2023-06-05T05:28:24;101326.28;;;17.86;56.40
818;BME280;391;51.052;6.954;2023-06-05T05:30:28;101328.91;;;17.88;56.40
818;BME280;391;51.052;6.954;2023-06-05T05:32:32;101329.03;;;18.03;56.15
818;BME280;391;51.052;6.954;2023-06-05T05:34:38;101325.53;;;18.03;56.01
818;BME280;391;51.052;6.954;2023-06-05T05:36:41;101331.66;;;17.98;56.24
818;BME280;391;51.052;6.954;2023-06-05T05:38:45;101322.78;;;17.89;56.00
818;BME280;391;51.052;6.954;2023-06-05T05:40:49;101323.69;;;17.92;56.19
818;BME280;391;51.052;6.954;2023-06-05T05:42:55;101327.28;;;18.01;56.10
818;BME280;391;51.052;6.954;2023-06-05T05:44:58;101327.34;;;18.10;55.85
818;BME280;391;51.052;6.954;2023-06-05T05:47:02;101337.13;;;18.24;55.63
818;BME280;391;51.052;6.954;2023-06-05T05:49:06;101334.47;;;18.23;55.44
818;BME280;391;51.052;6.954;2023-06-05T05:51:11;101334.50;;;18.29;55.35
818;BME280;391;51.052;6.954;2023-06-05T05:53:14;101339.81;;;18.30;55.49
818;BME280;391;51.052;6.954;2023-06-05T05:55:17;101339.84;;;18.38;55.21
818;BME280;391;51.052;6.954;2023-06-05T05:57:21;101341.63;;;18.36;55.04
818;BME280;391;51.052;6.954;2023-06-05T05:59:24;101348.72;;;18.43;55.09
818;BME280;391;51.052;6.954;2023-06-05T06:01:28;101347.94;;;18.55;54.87
818;BME280;391;51.052;6.954;2023-06-05T06:03:32;101343.53;;;18.51;54.55
818;BME280;391;51.052;6.954;2023-06-05T06:05:38;101344.38;;;18.49;54.67
818;BME280;391;51.052;6.954;2023-06-05T06:07:43;101340.13;;;18.74;55.34
818;BME280;391;51.052;6.954;2023-06-05T06:09:46;101338.38;;;18.78;54.72
818;BME280;391;51.052;6.954;2023-06-05T06:11:50;101341.09;;;18.88;54.27
818;BME280;391;51.052;6.954;2023-06-05T06:13:53;101336.69;;;18.96;54.07
818;BME280;391;51.052;6.954;2023-06-05T06:15:57;101330.59;;;19.16;54.02
818;BME280;391;51.052;6.954;2023-06-05T06:18:01;101334.19;;;19.33;53.46
818;BME280;391;51.052;6.954;2023-06-05T06:20:06;101330.66;;;19.35;53.12
818;BME280;391;51.052;6.954;2023-06-05T06:22:13;101336.75;;;19.18;52.94
818;BME280;391;51.052;6.954;2023-06-05T06:24:18;101279.44;;;18.91;53.47
818;BME280;391;51.052;6.954;2023-06-05T06:26:23;101350.09;;;19.40;53.27
818;BME280;391;51.052;6.954;2023-06-05T06:28:31;101328.97;;;19.42;53.17
818;BME280;391;51.052;6.954;2023-06-05T06:30:34;101342.22;;;19.63;52.67
818;BME280;391;51.052;6.954;2023-06-05T06:32:39;101339.59;;;19.65;52.32
818;BME280;391;51.052;6.954;2023-06-05T06:34:42;101344.88;;;19.59;52.19
818;BME280;391;51.052;6.954;2023-06-05T06:36:47;101344.88;;;19.65;51.99
818;BME280;391;51.052;6.954;2023-06-05T06:38:52;101338.69;;;19.58;52.36
818;BME280;391;51.052;6.954;2023-06-05T06:41:00;101336.03;;;19.58;52.60
818;BME280;391;51.052;6.954;2023-06-05T06:43:04;101349.28;;;19.85;52.54
818;BME280;391;51.052;6.954;2023-06-05T06:45:19;101354.59;;;19.99;51.78
818;BME280;391;51.052;6.954;2023-06-05T06:47:23;101360.81;;;20.10;52.08
818;BME280;391;51.052;6.954;2023-06-05T06:49:29;101362.53;;;20.02;51.56
818;BME280;391;51.052;6.954;2023-06-05T06:51:32;101348.41;;;19.79;51.72
818;BME280;391;51.052;6.954;2023-06-05T06:53:36;101363.44;;;19.96;51.99
818;BME280;391;51.052;6.954;2023-06-05T06:55:39;101363.44;;;19.90;51.36
818;BME280;391;51.052;6.954;2023-06-05T06:57:44;101362.53;;;19.91;51.79
818;BME280;391;51.052;6.954;2023-06-05T06:59:49;101364.31;;;19.97;51.61
818;BME280;391;51.052;6.954;2023-06-05T07:02:09;101366.94;;;19.88;51.56
818;BME280;391;51.052;6.954;2023-06-05T07:04:14;101359.00;;;19.85;51.58
818;BME280;391;51.052;6.954;2023-06-05T07:06:19;101359.91;;;19.90;51.63
818;BME280;391;51.052;6.954;2023-06-05T07:08:24;101358.13;;;19.87;51.57
818;BME280;391;51.052;6.954;2023-06-05T07:10:27;101354.56;;;19.64;51.75
818;BME280;391;51.052;6.954;2023-06-05T07:12:31;101357.22;;;19.61;52.18
818;BME280;391;51.052;6.954;2023-06-05T07:14:36;101346.63;;;19.61;52.29
818;BME280;391;51.052;6.954;2023-06-05T07:16:40;101351.94;;;19.70;52.36
818;BME280;391;51.052;6.954;2023-06-05T07:18:44;101358.13;;;19.83;52.39
818;BME280;391;51.052;6.954;2023-06-05T07:20:48;101358.13;;;19.90;51.89
818;BME280;391;51.052;6.954;2023-06-05T07:22:51;101356.38;;;19.83;51.92
818;BME280;391;51.052;6.954;2023-06-05T07:24:57;101355.47;;;19.74;52.09
818;BME280;391;51.052;6.954;2023-06-05T07:27:01;101351.94;;;19.79;51.75
818;BME280;391;51.052;6.954;2023-06-05T07:29:05;101331.63;;;19.75;51.93
818;BME280;391;51.052;6.954;2023-06-05T07:31:10;101349.31;;;19.87;52.00
818;BME280;391;51.052;6.954;2023-06-05T07:33:14;101355.47;;;19.83;51.99
818;BME280;391;51.052;6.954;2023-06-05T07:35:31;101343.13;;;19.82;51.98
818;BME280;391;51.052;6.954;2023-06-05T07:37:36;101344.00;;;19.82;51.88
818;BME280;391;51.052;6.954;2023-06-05T07:39:40;101345.78;;;19.86;51.62
818;BME280;391;51.052;6.954;2023-06-05T07:41:43;101345.75;;;19.88;51.67
818;BME280;391;51.052;6.954;2023-06-05T07:43:47;101344.91;;;19.99;51.44
818;BME280;391;51.052;6.954;2023-06-05T07:45:50;101349.31;;;20.06;51.37
818;BME280;391;51.052;6.954;2023-06-05T07:47:55;101341.38;;;20.13;51.60
818;BME280;391;51.052;6.954;2023-06-05T07:50:00;101342.25;;;20.22;51.24
818;BME280;391;51.052;6.954;2023-06-05T07:52:05;101347.53;;;20.18;50.86
818;BME280;391;51.052;6.954;2023-06-05T07:54:11;101345.78;;;20.23;50.66
818;BME280;391;51.052;6.954;2023-06-05T07:56:15;101348.41;;;20.24;50.13
818;BME280;391;51.052;6.954;2023-06-05T07:58:19;101344.88;;;20.18;50.60
818;BME280;391;51.052;6.954;2023-06-05T08:00:23;101339.59;;;20.22;50.34
818;BME280;391;51.052;6.954;2023-06-05T08:02:27;101343.13;;;20.33;50.30
818;BME280;391;51.052;6.954;2023-06-05T08:04:32;101344.00;;;20.46;49.97
818;BME280;391;51.052;6.954;2023-06-05T08:06:38;101334.28;;;20.57;49.67
818;BME280;391;51.052;6.954;2023-06-05T08:08:42;101336.03;;;20.61;49.65
818;BME280;391;51.052;6.954;2023-06-05T08:10:46;101336.06;;;20.58;49.48
818;BME280;391;51.052;6.954;2023-06-05T08:12:50;101326.28;;;20.66;49.46
818;BME280;391;51.052;6.954;2023-06-05T08:14:53;101328.91;;;20.78;48.98
818;BME280;391;51.052;6.954;2023-06-05T08:16:56;101327.13;;;20.83;48.53
818;BME280;391;51.052;6.954;2023-06-05T08:19:00;101321.84;;;20.74;48.25
818;BME280;391;51.052;6.954;2023-06-05T08:21:05;101320.91;;;20.92;48.45
818;BME280;391;51.052;6.954;2023-06-05T08:23:09;101324.41;;;21.01;48.22
818;BME280;391;51.052;6.954;2023-06-05T08:25:13;101320.84;;;21.12;48.53
818;BME280;391;51.052;6.954;2023-06-05T08:27:17;101313.69;;;21.26;47.68
818;BME280;391;51.052;6.954;2023-06-05T08:29:20;101320.72;;;21.34;47.00
818;BME280;391;51.052;6.954;2023-06-05T08:31:24;101321.63;;;21.33;46.35
818;BME280;391;51.052;6.954;2023-06-05T08:33:27;101318.91;;;21.39;45.81
818;BME280;391;51.052;6.954;2023-06-05T08:35:31;101315.31;;;21.49;44.93
818;BME280;391;51.052;6.954;2023-06-05T08:37:36;101307.34;;;21.51;44.43
818;BME280;391;51.052;6.954;2023-06-05T08:39:39;101307.38;;;21.45;45.63
818;BME280;391;51.052;6.954;2023-06-05T08:41:43;101301.09;;;21.58;45.80
818;BME280;391;51.052;6.954;2023-06-05T08:43:46;101293.13;;;21.62;45.99
818;BME280;391;51.052;6.954;2023-06-05T08:45:51;101294.84;;;21.68;45.78
818;BME280;391;51.052;6.954;2023-06-05T08:47:59;101292.97;;;21.76;45.92
818;BME280;391;51.052;6.954;2023-06-05T08:50:03;101295.53;;;21.93;44.78
818;BME280;391;51.052;6.954;2023-06-05T08:52:08;101305.25;;;21.95;43.49
818;BME280;391;51.052;6.954;2023-06-05T08:54:14;101301.72;;;21.96;42.48
818;BME280;391;51.052;6.954;2023-06-05T08:56:18;101301.63;;;22.07;42.50
818;BME280;391;51.052;6.954;2023-06-05T08:58:23;101297.13;;;22.13;43.15
818;BME280;391;51.052;6.954;2023-06-05T09:00:27;101293.56;;;22.18;41.69
818;BME280;391;51.052;6.954;2023-06-05T09:02:30;101282.84;;;22.27;40.94
818;BME280;391;51.052;6.954;2023-06-05T09:04:34;101283.59;;;22.38;40.65
818;BME280;391;51.052;6.954;2023-06-05T09:06:38;101273.00;;;22.36;39.17
818;BME280;391;51.052;6.954;2023-06-05T09:08:42;101277.28;;;22.48;39.79
818;BME280;391;51.052;6.954;2023-06-05T09:10:47;101291.28;;;22.65;39.94
818;BME280;391;51.052;6.954;2023-06-05T09:12:55;101210.19;;;22.29;38.93
818;BME280;391;51.052;6.954;2023-06-05T09:14:59;101285.75;;;22.83;38.90
818;BME280;391;51.052;6.954;2023-06-05T09:17:03;101279.44;;;22.92;38.38
818;BME280;391;51.052;6.954;2023-06-05T09:19:09;101285.41;;;23.09;38.34
818;BME280;391;51.052;6.954;2023-06-05T09:21:13;101274.53;;;23.26;38.16
818;BME280;391;51.052;6.954;2023-06-05T09:23:22;101276.19;;;23.34;37.95
818;BME280;391;51.052;6.954;2023-06-05T09:25:43;101164.44;;;22.75;36.61
818;BME280;391;51.052;6.954;2023-06-05T09:28:05;101281.56;;;23.30;36.24
818;BME280;391;51.052;6.954;2023-06-05T09:30:10;101273.34;;;23.46;36.64
818;BME280;391;51.052;6.954;2023-06-05T09:32:16;101268.81;;;23.53;35.90
818;BME280;391;51.052;6.954;2023-06-05T09:34:22;101269.44;;;23.70;35.36
818;BME280;391;51.052;6.954;2023-06-05T09:36:26;101275.34;;;23.89;34.61
818;BME280;391;51.052;6.954;2023-06-05T09:38:29;101265.28;;;24.06;33.18
818;BME280;391;51.052;6.954;2023-06-05T09:40:39;101284.56;;;24.21;30.94
818;BME280;391;51.052;6.954;2023-06-05T09:42:43;101272.78;;;24.32;29.88
818;BME280;391;51.052;6.954;2023-06-05T09:44:57;101244.56;;;24.21;29.53
818;BME280;391;51.052;6.954;2023-06-05T09:47:03;101265.16;;;24.58;29.64
818;BME280;391;51.052;6.954;2023-06-05T09:49:08;101267.56;;;24.71;29.69
818;BME280;391;51.052;6.954;2023-06-05T09:51:12;101270.88;;;24.84;29.20
818;BME280;391;51.052;6.954;2023-06-05T09:53:17;101276.00;;;24.93;29.03
818;BME280;391;51.052;6.954;2023-06-05T09:55:23;101278.47;;;25.02;28.84
818;BME280;391;51.052;6.954;2023-06-05T09:57:28;101282.72;;;25.12;27.37
818;BME280;391;51.052;6.954;2023-06-05T09:59:34;101274.47;;;25.23;27.19
818;BME280;391;51.052;6.954;2023-06-05T10:01:41;101273.28;;;25.35;27.02
818;BME280;391;51.052;6.954;2023-06-05T10:03:48;101269.88;;;25.28;25.83
818;BME280;391;51.052;6.954;2023-06-05T10:05:54;101271.41;;;25.40;25.81
818;BME280;391;51.052;6.954;2023-06-05T10:08:02;101266.72;;;25.51;26.13
818;BME280;391;51.052;6.954;2023-06-05T10:10:07;101265.75;;;25.53;25.43
818;BME280;391;51.052;6.954;2023-06-05T10:12:12;101266.56;;;25.57;25.27
818;BME280;391;51.052;6.954;2023-06-05T10:14:16;101270.84;;;25.64;25.76
818;BME280;391;51.052;6.954;2023-06-05T10:16:20;101279.44;;;25.76;25.22
818;BME280;391;51.052;6.954;2023-06-05T10:18:30;101262.09;;;25.57;25.19
818;BME280;391;51.052;6.954;2023-06-05T10:20:35;101268.25;;;25.61;24.96
818;BME280;391;51.052;6.954;2023-06-05T10:22:40;101268.31;;;25.58;24.66
818;BME280;391;51.052;6.954;2023-06-05T10:24:46;101266.63;;;25.54;26.59
818;BME280;391;51.052;6.954;2023-06-05T10:27:17;101268.09;;;25.67;27.34
818;BME280;391;51.052;6.954;2023-06-05T10:29:37;101265.59;;;25.95;27.26
818;BME280;391;51.052;6.954;2023-06-05T10:31:46;101267.88;;;26.10;27.51
818;BME280;391;51.052;6.954;2023-06-05T10:34:12;101275.78;;;26.16;26.81
818;BME280;391;51.052;6.954;2023-06-05T10:36:26;101264.47;;;26.37;26.06
818;BME280;391;51.052;6.954;2023-06-05T10:38:42;101271.88;;;26.27;25.57
818;BME280;391;51.052;6.954;2023-06-05T10:40:48;101265.31;;;26.39;24.85
818;BME280;391;51.052;6.954;2023-06-05T10:42:54;101265.28;;;26.41;24.72
818;BME280;391;51.052;6.954;2023-06-05T10:44:58;101266.81;;;26.49;24.29
818;BME280;391;51.052;6.954;2023-06-05T10:50:22;101258.88;;;26.77;24.71
818;BME280;391;51.052;6.954;2023-06-05T10:52:36;101257.69;;;26.87;24.89
818;BME280;391;51.052;6.954;2023-06-05T10:54:55;101257.47;;;26.95;24.96
818;BME280;391;51.052;6.954;2023-06-05T10:57:00;101259.88;;;27.04;25.79
818;BME280;391;51.052;6.954;2023-06-05T10:59:11;101246.09;;;26.88;25.72
818;BME280;391;51.052;6.954;2023-06-05T11:01:16;101265.13;;;27.07;25.86
818;BME280;391;51.052;6.954;2023-06-05T11:03:54;101253.19;;;27.18;26.23
818;BME280;391;51.052;6.954;2023-06-05T11:06:12;101253.50;;;27.35;26.79
818;BME280;391;51.052;6.954;2023-06-05T11:08:16;101249.03;;;27.36;26.59
818;BME280;391;51.052;6.954;2023-06-05T11:10:22;101245.97;;;27.48;26.53
818;BME280;391;51.052;6.954;2023-06-05T11:12:25;101241.69;;;27.44;26.01
818;BME280;391;51.052;6.954;2023-06-05T11:14:45;101246.16;;;27.44;25.97
818;BME280;391;51.052;6.954;2023-06-05T11:16:49;101245.28;;;27.43;26.75
818;BME280;391;51.052;6.954;2023-06-05T11:18:52;101216.94;;;27.34;26.92
818;BME280;391;51.052;6.954;2023-06-05T11:20:58;101245.97;;;27.48;26.13
818;BME280;391;51.052;6.954;2023-06-05T11:23:09;101238.78;;;27.50;26.48
818;BME280;391;51.052;6.954;2023-06-05T11:25:26;101237.16;;;27.45;26.30
818;BME280;391;51.052;6.954;2023-06-05T11:27:43;101234.03;;;27.30;26.04
818;BME280;391;51.052;6.954;2023-06-05T11:29:47;101192.34;;;27.22;26.58
818;BME280;391;51.052;6.954;2023-06-05T11:31:52;101234.94;;;27.57;25.89
818;BME280;391;51.052;6.954;2023-06-05T11:33:56;101241.97;;;27.61;24.68
818;BME280;391;51.052;6.954;2023-06-05T11:36:01;101232.16;;;27.60;24.01